^^
Station Historical Data
Daily Summary for March 20, 2017 Units:  Both    English   Metric
« Previous Day
Next Day »
Daily Weekly Monthly Yearly Custom
  High: Low: Average:
Temperature: 81.0 °F /  27.2 °C 60.1 °F /  15.6 °C 69.1 °F /  20.6 °C
Dew Point: 55.2 °F /  12.9 °C 46.0 °F /  7.8 °C 51.2 °F /  10.7 °C
Humidity: 79% 31% 56%
Wind Speed: 15.0mph /  24.1km/h - 2.2mph /  3.5km/h
Wind Gust: 18.0mph /  29km/h - -
Wind- - East
Pressure: 30.02 in /  1016.5 hPa 29.92 in /  1013.1 hPa -
Precipitation: 0.00 in /  0 mm    
Historical Graphs
 
 
Tabular Data for March 20, 2017
Time Temperature Dew Point Pressure Wind Wind Speed Wind Gust Humidity Rainfall Rate (Hourly) solar Conditions
00:05 62.8 °F /  17.1 °C 52.5 °F /  11.4 °C 29.98in /  1015.1hPa Calm   1.0mph /  1.6km/h 69% 0.00in /  0mm 0.0 W/m2
00:12 62.6 °F /  17 °C 52.3 °F /  11.3 °C 29.98in /  1015.1hPa Calm     69% 0.00in /  0mm 0.0 W/m2
00:24 62.2 °F /  16.8 °C 52.3 °F /  11.3 °C 29.98in /  1015.1hPa Calm     70% 0.00in /  0mm 0.0 W/m2
00:30 62.1 °F /  16.7 °C 52.2 °F /  11.2 °C 29.98in /  1015.1hPa Calm     70% 0.00in /  0mm 0.0 W/m2
00:36 62.1 °F /  16.7 °C 52.2 °F /  11.2 °C 29.98in /  1015.1hPa Calm     70% 0.00in /  0mm 0.0 W/m2
00:42 61.9 °F /  16.6 °C 52.3 °F /  11.3 °C 29.98in /  1015.1hPa Calm     71% 0.00in /  0mm 0.0 W/m2
00:48 61.9 °F /  16.6 °C 52.0 °F /  11.1 °C 29.98in /  1015.1hPa Calm   1.0mph /  1.6km/h 70% 0.00in /  0mm 0.0 W/m2
00:54 61.9 °F /  16.6 °C 52.3 °F /  11.3 °C 29.98in /  1015.1hPa Calm     71% 0.00in /  0mm 0.0 W/m2
01:00 61.9 °F /  16.6 °C 52.0 °F /  11.1 °C 29.98in /  1015.1hPa Calm     70% 0.00in /  0mm 0.0 W/m2
01:06 61.9 °F /  16.6 °C 52.0 °F /  11.1 °C 29.98in /  1015.1hPa Calm     70% 0.00in /  0mm 0.0 W/m2
01:12 61.9 °F /  16.6 °C 52.0 °F /  11.1 °C 29.98in /  1015.1hPa Calm   1.0mph /  1.6km/h 70% 0.00in /  0mm 0.0 W/m2
01:18 61.9 °F /  16.6 °C 52.0 °F /  11.1 °C 29.98in /  1015.1hPa Calm   2.0mph /  3.2km/h 70% 0.00in /  0mm 0.0 W/m2
01:24 62.1 °F /  16.7 °C 52.2 °F /  11.2 °C 29.98in /  1015.1hPa Calm   1.0mph /  1.6km/h 70% 0.00in /  0mm 0.0 W/m2
01:31 62.1 °F /  16.7 °C 52.2 °F /  11.2 °C 29.98in /  1015.1hPa Calm   1.0mph /  1.6km/h 70% 0.00in /  0mm 0.0 W/m2
01:37 62.1 °F /  16.7 °C 52.5 °F /  11.4 °C 29.98in /  1015.1hPa Calm   1.0mph /  1.6km/h 71% 0.00in /  0mm 0.0 W/m2
01:43 62.1 °F /  16.7 °C 52.5 °F /  11.4 °C 29.98in /  1015.1hPa Calm   1.0mph /  1.6km/h 71% 0.00in /  0mm 0.0 W/m2
01:49 62.1 °F /  16.7 °C 52.2 °F /  11.2 °C 29.98in /  1015.1hPa Calm   1.0mph /  1.6km/h 70% 0.00in /  0mm 0.0 W/m2
01:55 62.2 °F /  16.8 °C 52.3 °F /  11.3 °C 29.98in /  1015.1hPa Calm   1.0mph /  1.6km/h 70% 0.00in /  0mm 0.0 W/m2
02:01 62.1 °F /  16.7 °C 52.2 °F /  11.2 °C 29.98in /  1015.1hPa Calm   2.0mph /  3.2km/h 70% 0.00in /  0mm 0.0 W/m2
02:07 62.2 °F /  16.8 °C 52.0 °F /  11.1 °C 29.98in /  1015.1hPa Calm   2.0mph /  3.2km/h 69% 0.00in /  0mm 0.0 W/m2
02:13 62.2 °F /  16.8 °C 52.0 °F /  11.1 °C 29.98in /  1015.1hPa Calm     69% 0.00in /  0mm 0.0 W/m2
02:19 62.2 °F /  16.8 °C 52.0 °F /  11.1 °C 29.98in /  1015.1hPa Calm   3.0mph /  4.8km/h 69% 0.00in /  0mm 0.0 W/m2
02:25 62.4 °F /  16.9 °C 52.2 °F /  11.2 °C 29.97in /  1014.8hPa Calm   3.0mph /  4.8km/h 69% 0.00in /  0mm 0.0 W/m2
02:31 62.8 °F /  17.1 °C 52.0 °F /  11.1 °C 29.97in /  1014.8hPa Calm   3.0mph /  4.8km/h 68% 0.00in /  0mm 0.0 W/m2
02:38 63.0 °F /  17.2 °C 52.2 °F /  11.2 °C 29.97in /  1014.8hPa Calm   1.0mph /  1.6km/h 68% 0.00in /  0mm 0.0 W/m2
02:44 63.0 °F /  17.2 °C 52.7 °F /  11.5 °C 29.97in /  1014.8hPa Calm   1.0mph /  1.6km/h 69% 0.00in /  0mm 0.0 W/m2
02:50 63.0 °F /  17.2 °C 52.2 °F /  11.2 °C 29.97in /  1014.8hPa Calm     68% 0.00in /  0mm 0.0 W/m2
02:56 63.0 °F /  17.2 °C 52.7 °F /  11.5 °C 29.97in /  1014.8hPa ENE 0.9mph /  1.4km/h 1.0mph /  1.6km/h 69% 0.00in /  0mm 0.0 W/m2
03:02 63.0 °F /  17.2 °C 52.7 °F /  11.5 °C 29.97in /  1014.8hPa Calm     69% 0.00in /  0mm 0.0 W/m2
03:08 63.0 °F /  17.2 °C 52.7 °F /  11.5 °C 29.97in /  1014.8hPa Calm   1.0mph /  1.6km/h 69% 0.00in /  0mm 0.0 W/m2
03:14 62.8 °F /  17.1 °C 52.5 °F /  11.4 °C 29.97in /  1014.8hPa Calm     69% 0.00in /  0mm 0.0 W/m2
03:21 62.6 °F /  17 °C 52.3 °F /  11.3 °C 29.97in /  1014.8hPa Calm     69% 0.00in /  0mm 0.0 W/m2
03:27 62.4 °F /  16.9 °C 52.5 °F /  11.4 °C 29.97in /  1014.8hPa Calm   2.0mph /  3.2km/h 70% 0.00in /  0mm 0.0 W/m2
03:33 62.2 °F /  16.8 °C 52.3 °F /  11.3 °C 29.97in /  1014.8hPa Calm     70% 0.00in /  0mm 0.0 W/m2
03:39 62.1 °F /  16.7 °C 52.2 °F /  11.2 °C 29.98in /  1015.1hPa Calm     70% 0.00in /  0mm 0.0 W/m2
03:45 61.9 °F /  16.6 °C 52.3 °F /  11.3 °C 29.98in /  1015.1hPa NE 0.9mph /  1.4km/h 1.0mph /  1.6km/h 71% 0.00in /  0mm 0.0 W/m2
03:51 61.9 °F /  16.6 °C 52.3 °F /  11.3 °C 29.98in /  1015.1hPa Calm   1.0mph /  1.6km/h 71% 0.00in /  0mm 0.0 W/m2
03:57 61.7 °F /  16.5 °C 52.2 °F /  11.2 °C 29.98in /  1015.1hPa NE 0.9mph /  1.4km/h 2.0mph /  3.2km/h 71% 0.00in /  0mm 0.0 W/m2
04:03 61.5 °F /  16.4 °C 52.0 °F /  11.1 °C 29.98in /  1015.1hPa Calm   2.0mph /  3.2km/h 71% 0.00in /  0mm 0.0 W/m2
04:10 61.5 °F /  16.4 °C 52.0 °F /  11.1 °C 29.98in /  1015.1hPa East 0.9mph /  1.4km/h 4.0mph /  6.4km/h 71% 0.00in /  0mm 0.0 W/m2
04:16 61.5 °F /  16.4 °C 52.0 °F /  11.1 °C 29.98in /  1015.1hPa NE 0.9mph /  1.4km/h 6.0mph /  9.7km/h 71% 0.00in /  0mm 0.0 W/m2
04:22 61.7 °F /  16.5 °C 52.2 °F /  11.2 °C 29.98in /  1015.1hPa Calm   5.0mph /  8km/h 71% 0.00in /  0mm 0.0 W/m2
04:28 61.9 °F /  16.6 °C 52.0 °F /  11.1 °C 29.98in /  1015.1hPa ESE 4.9mph /  7.9km/h 6.0mph /  9.7km/h 70% 0.00in /  0mm 0.0 W/m2
04:34 61.9 °F /  16.6 °C 52.0 °F /  11.1 °C 29.98in /  1015.1hPa ENE 0.9mph /  1.4km/h 4.0mph /  6.4km/h 70% 0.00in /  0mm 0.0 W/m2
04:40 62.1 °F /  16.7 °C 52.2 °F /  11.2 °C 29.98in /  1015.1hPa ENE 2.0mph /  3.2km/h 5.0mph /  8km/h 70% 0.00in /  0mm 0.0 W/m2
04:46 62.1 °F /  16.7 °C 52.2 °F /  11.2 °C 29.99in /  1015.5hPa Calm   5.0mph /  8km/h 70% 0.00in /  0mm 0.0 W/m2
04:53 62.2 °F /  16.8 °C 52.3 °F /  11.3 °C 29.98in /  1015.1hPa East 0.9mph /  1.4km/h 7.0mph /  11.3km/h 70% 0.00in /  0mm 0.0 W/m2
04:59 62.2 °F /  16.8 °C 52.3 °F /  11.3 °C 29.99in /  1015.5hPa East 2.0mph /  3.2km/h 6.0mph /  9.7km/h 70% 0.00in /  0mm 0.0 W/m2
05:05 62.2 °F /  16.8 °C 52.7 °F /  11.5 °C 29.99in /  1015.5hPa ENE 0.9mph /  1.4km/h 4.0mph /  6.4km/h 71% 0.00in /  0mm 0.0 W/m2
05:11 62.1 °F /  16.7 °C 52.9 °F /  11.6 °C 29.99in /  1015.5hPa ESE 2.9mph /  4.7km/h 5.0mph /  8km/h 72% 0.00in /  0mm 0.0 W/m2
05:17 62.1 °F /  16.7 °C 52.9 °F /  11.6 °C 29.99in /  1015.5hPa ENE 2.0mph /  3.2km/h 5.0mph /  8km/h 72% 0.00in /  0mm 0.0 W/m2
05:23 61.9 °F /  16.6 °C 52.7 °F /  11.5 °C 29.99in /  1015.5hPa ENE 0.9mph /  1.4km/h 7.0mph /  11.3km/h 72% 0.00in /  0mm 0.0 W/m2
05:29 61.9 °F /  16.6 °C 53.1 °F /  11.7 °C 29.99in /  1015.5hPa East 0.9mph /  1.4km/h 2.0mph /  3.2km/h 73% 0.00in /  0mm 0.0 W/m2
05:36 61.5 °F /  16.4 °C 52.7 °F /  11.5 °C 29.99in /  1015.5hPa East 0.9mph /  1.4km/h 7.0mph /  11.3km/h 73% 0.00in /  0mm 0.0 W/m2
05:42 61.5 °F /  16.4 °C 52.7 °F /  11.5 °C 30.00in /  1015.8hPa ENE 4.0mph /  6.4km/h 4.0mph /  6.4km/h 73% 0.00in /  0mm 0.0 W/m2
05:48 61.3 °F /  16.3 °C 53.1 °F /  11.7 °C 30.00in /  1015.8hPa Calm   5.0mph /  8km/h 74% 0.00in /  0mm 0.0 W/m2
05:54 61.3 °F /  16.3 °C 53.1 °F /  11.7 °C 30.00in /  1015.8hPa Calm   3.0mph /  4.8km/h 74% 0.00in /  0mm 0.0 W/m2
06:00 61.2 °F /  16.2 °C 53.2 °F /  11.8 °C 30.00in /  1015.8hPa ENE 0.9mph /  1.4km/h 3.0mph /  4.8km/h 75% 0.00in /  0mm 0.0 W/m2
06:06 61.2 °F /  16.2 °C 53.2 °F /  11.8 °C 30.01in /  1016.1hPa Calm   2.0mph /  3.2km/h 75% 0.00in /  0mm 0.0 W/m2
06:12 61.0 °F /  16.1 °C 53.4 °F /  11.9 °C 30.00in /  1015.8hPa Calm   4.0mph /  6.4km/h 76% 0.00in /  0mm 0.0 W/m2
06:18 60.8 °F /  16 °C 53.2 °F /  11.8 °C 30.01in /  1016.1hPa Calm   1.0mph /  1.6km/h 76% 0.00in /  0mm 0.0 W/m2
06:24 60.6 °F /  15.9 °C 53.1 °F /  11.7 °C 30.01in /  1016.1hPa East 0.9mph /  1.4km/h 1.0mph /  1.6km/h 76% 0.00in /  0mm 0.0 W/m2
06:31 60.6 °F /  15.9 °C 53.4 °F /  11.9 °C 30.01in /  1016.1hPa Calm   2.0mph /  3.2km/h 77% 0.00in /  0mm 0.0 W/m2
06:37 60.4 °F /  15.8 °C 53.2 °F /  11.8 °C 30.01in /  1016.1hPa Calm   2.0mph /  3.2km/h 77% 0.00in /  0mm 0.0 W/m2
06:43 60.4 °F /  15.8 °C 53.2 °F /  11.8 °C 30.01in /  1016.1hPa Calm   3.0mph /  4.8km/h 77% 0.00in /  0mm 0.0 W/m2
06:49 60.3 °F /  15.7 °C 53.4 °F /  11.9 °C 30.01in /  1016.1hPa Calm   2.0mph /  3.2km/h 78% 0.00in /  0mm 0.0 W/m2
06:55 60.3 °F /  15.7 °C 53.4 °F /  11.9 °C 30.01in /  1016.1hPa Calm   2.0mph /  3.2km/h 78% 0.00in /  0mm 0.0 W/m2
07:01 60.3 °F /  15.7 °C 53.4 °F /  11.9 °C 30.01in /  1016.1hPa NE 0.9mph /  1.4km/h 3.0mph /  4.8km/h 78% 0.00in /  0mm 5.0 W/m2
07:08 60.3 °F /  15.7 °C 53.4 °F /  11.9 °C 30.01in /  1016.1hPa Calm   3.0mph /  4.8km/h 78% 0.00in /  0mm 11.0 W/m2
07:14 60.3 °F /  15.7 °C 53.4 °F /  11.9 °C 30.01in /  1016.1hPa Calm   2.0mph /  3.2km/h 78% 0.00in /  0mm 16.0 W/m2
07:20 60.3 °F /  15.7 °C 53.8 °F /  12.1 °C 30.01in /  1016.1hPa Calm   4.0mph /  6.4km/h 79% 0.00in /  0mm 19.0 W/m2
07:26 60.1 °F /  15.6 °C 53.6 °F /  12 °C 30.01in /  1016.1hPa NE 0.9mph /  1.4km/h 4.0mph /  6.4km/h 79% 0.00in /  0mm 25.0 W/m2
07:32 60.1 °F /  15.6 °C 53.6 °F /  12 °C 30.01in /  1016.1hPa Calm   2.0mph /  3.2km/h 79% 0.00in /  0mm 28.0 W/m2
07:38 60.3 °F /  15.7 °C 53.8 °F /  12.1 °C 30.01in /  1016.1hPa East 0.9mph /  1.4km/h 2.0mph /  3.2km/h 79% 0.00in /  0mm 33.0 W/m2
07:44 60.3 °F /  15.7 °C 53.8 °F /  12.1 °C 30.01in /  1016.1hPa Calm   3.0mph /  4.8km/h 79% 0.00in /  0mm 37.0 W/m2
07:50 60.4 °F /  15.8 °C 54.0 °F /  12.2 °C 30.01in /  1016.1hPa Calm   2.0mph /  3.2km/h 79% 0.00in /  0mm 40.0 W/m2
07:56 60.6 °F /  15.9 °C 54.1 °F /  12.3 °C 30.02in /  1016.5hPa East 6.0mph /  9.7km/h 6.0mph /  9.7km/h 79% 0.00in /  0mm 44.0 W/m2
08:03 61.2 °F /  16.2 °C 54.3 °F /  12.4 °C 30.01in /  1016.1hPa Calm   3.0mph /  4.8km/h 78% 0.00in /  0mm 47.0 W/m2
08:09 61.5 °F /  16.4 °C 54.3 °F /  12.4 °C 30.01in /  1016.1hPa Calm   3.0mph /  4.8km/h 77% 0.00in /  0mm 49.0 W/m2
08:15 61.9 °F /  16.6 °C 54.3 °F /  12.4 °C 30.02in /  1016.5hPa North 4.0mph /  6.4km/h 8.0mph /  12.9km/h 76% 0.00in /  0mm 53.0 W/m2
08:21 62.2 °F /  16.8 °C 54.5 °F /  12.5 °C 30.02in /  1016.5hPa ENE 0.9mph /  1.4km/h 3.0mph /  4.8km/h 76% 0.00in /  0mm 54.0 W/m2
08:27 62.8 °F /  17.1 °C 54.7 °F /  12.6 °C 30.02in /  1016.5hPa ESE 2.0mph /  3.2km/h 4.0mph /  6.4km/h 75% 0.00in /  0mm 56.0 W/m2
08:33 63.3 °F /  17.4 °C 54.9 °F /  12.7 °C 30.02in /  1016.5hPa NE 0.9mph /  1.4km/h 3.0mph /  4.8km/h 74% 0.00in /  0mm 54.0 W/m2
08:40 63.9 °F /  17.7 °C 55.0 °F /  12.8 °C 30.02in /  1016.5hPa SE 2.9mph /  4.7km/h 4.0mph /  6.4km/h 73% 0.00in /  0mm 56.0 W/m2
08:46 64.6 °F /  18.1 °C 55.0 °F /  12.8 °C 30.02in /  1016.5hPa NNE 8.1mph /  13km/h 12.0mph /  19.3km/h 71% 0.00in /  0mm 54.0 W/m2
08:52 64.9 °F /  18.3 °C 54.9 °F /  12.7 °C 30.02in /  1016.5hPa SE 2.0mph /  3.2km/h 7.0mph /  11.3km/h 70% 0.00in /  0mm 56.0 W/m2
08:58 65.5 °F /  18.6 °C 54.7 °F /  12.6 °C 30.02in /  1016.5hPa North 4.0mph /  6.4km/h 7.0mph /  11.3km/h 68% 0.00in /  0mm 58.0 W/m2
09:04 66.0 °F /  18.9 °C 54.7 °F /  12.6 °C 30.02in /  1016.5hPa NNE 4.9mph /  7.9km/h 8.0mph /  12.9km/h 67% 0.00in /  0mm 58.0 W/m2
09:10 66.6 °F /  19.2 °C 54.9 °F /  12.7 °C 30.02in /  1016.5hPa ESE 6.0mph /  9.7km/h 9.0mph /  14.5km/h 66% 0.00in /  0mm 58.0 W/m2
09:16 66.7 °F /  19.3 °C 54.7 °F /  12.6 °C 30.02in /  1016.5hPa East 4.9mph /  7.9km/h 10.0mph /  16.1km/h 65% 0.00in /  0mm 60.0 W/m2
09:22 67.3 °F /  19.6 °C 55.0 °F /  12.8 °C 30.02in /  1016.5hPa ENE 4.0mph /  6.4km/h 7.0mph /  11.3km/h 65% 0.00in /  0mm 58.0 W/m2
09:29 67.6 °F /  19.8 °C 54.7 °F /  12.6 °C 30.02in /  1016.5hPa Calm   6.0mph /  9.7km/h 63% 0.00in /  0mm 62.0 W/m2
09:35 68.0 °F /  20 °C 54.9 °F /  12.7 °C 30.02in /  1016.5hPa East 8.1mph /  13km/h 8.1mph /  13km/h 63% 0.00in /  0mm 63.0 W/m2
09:41 68.4 °F /  20.2 °C 54.9 °F /  12.7 °C 30.02in /  1016.5hPa ESE 4.9mph /  7.9km/h 7.0mph /  11.3km/h 62% 0.00in /  0mm 69.0 W/m2
09:47 68.7 °F /  20.4 °C 54.3 °F /  12.4 °C 30.02in /  1016.5hPa East 10.1mph /  16.3km/h 15.0mph /  24.1km/h 60% 0.00in /  0mm 81.0 W/m2
09:53 68.9 °F /  20.5 °C 53.6 °F /  12 °C 30.02in /  1016.5hPa NNE 10.1mph /  16.3km/h 12.0mph /  19.3km/h 58% 0.00in /  0mm 79.0 W/m2
09:59 69.4 °F /  20.8 °C 54.5 °F /  12.5 °C 30.02in /  1016.5hPa NE 0.9mph /  1.4km/h 11.0mph /  17.7km/h 59% 0.00in /  0mm 663.0 W/m2
10:05 70.2 °F /  21.2 °C 54.1 °F /  12.3 °C 30.02in /  1016.5hPa NNE 6.0mph /  9.7km/h 7.0mph /  11.3km/h 57% 0.00in /  0mm 677.0 W/m2
10:11 70.9 °F /  21.6 °C 54.3 °F /  12.4 °C 30.02in /  1016.5hPa SSW 2.0mph /  3.2km/h 11.0mph /  17.7km/h 56% 0.00in /  0mm 698.0 W/m2
10:18 71.4 °F /  21.9 °C 54.5 °F /  12.5 °C 30.02in /  1016.5hPa NNE 2.0mph /  3.2km/h 6.0mph /  9.7km/h 55% 0.00in /  0mm 710.0 W/m2
10:24 72.0 °F /  22.2 °C 54.3 °F /  12.4 °C 30.02in /  1016.5hPa NNE 4.9mph /  7.9km/h 7.0mph /  11.3km/h 54% 0.00in /  0mm 729.0 W/m2
10:30 72.7 °F /  22.6 °C 54.5 °F /  12.5 °C 30.02in /  1016.5hPa NNE 8.1mph /  13km/h 11.0mph /  17.7km/h 53% 0.00in /  0mm 752.0 W/m2
10:36 73.0 °F /  22.8 °C 54.3 °F /  12.4 °C 30.01in /  1016.1hPa WNW 0.9mph /  1.4km/h 12.0mph /  19.3km/h 52% 0.00in /  0mm 784.0 W/m2
10:42 73.6 °F /  23.1 °C 54.9 °F /  12.7 °C 30.02in /  1016.5hPa ESE 4.9mph /  7.9km/h 12.0mph /  19.3km/h 52% 0.00in /  0mm 830.0 W/m2
10:48 73.6 °F /  23.1 °C 54.3 °F /  12.4 °C 30.01in /  1016.1hPa ESE 6.0mph /  9.7km/h 9.0mph /  14.5km/h 51% 0.00in /  0mm 918.0 W/m2
10:54 73.9 °F /  23.3 °C 54.1 °F /  12.3 °C 30.01in /  1016.1hPa SE 6.0mph /  9.7km/h 10.0mph /  16.1km/h 50% 0.00in /  0mm 856.0 W/m2
11:00 74.5 °F /  23.6 °C 55.2 °F /  12.9 °C 30.01in /  1016.1hPa ESE 0.9mph /  1.4km/h 10.0mph /  16.1km/h 51% 0.00in /  0mm 870.0 W/m2
11:06 74.7 °F /  23.7 °C 54.3 °F /  12.4 °C 30.01in /  1016.1hPa NE 4.9mph /  7.9km/h 10.0mph /  16.1km/h 49% 0.00in /  0mm 926.0 W/m2
11:13 75.0 °F /  23.9 °C 53.4 °F /  11.9 °C 30.01in /  1016.1hPa NNE 6.9mph /  11.1km/h 9.0mph /  14.5km/h 47% 0.00in /  0mm 891.0 W/m2
11:19 75.4 °F /  24.1 °C 53.8 °F /  12.1 °C 30.01in /  1016.1hPa NE 2.9mph /  4.7km/h 10.0mph /  16.1km/h 47% 0.00in /  0mm 905.0 W/m2
11:25 75.7 °F /  24.3 °C 54.1 °F /  12.3 °C 30.01in /  1016.1hPa Calm   6.0mph /  9.7km/h 47% 0.00in /  0mm 960.0 W/m2
11:31 75.7 °F /  24.3 °C 54.1 °F /  12.3 °C 30.01in /  1016.1hPa ENE 6.9mph /  11.1km/h 9.0mph /  14.5km/h 47% 0.00in /  0mm 930.0 W/m2
11:37 76.3 °F /  24.6 °C 52.7 °F /  11.5 °C 30.00in /  1015.8hPa NE 6.0mph /  9.7km/h 18.0mph /  29km/h 44% 0.00in /  0mm 1004.0 W/m2
11:43 76.5 °F /  24.7 °C 53.6 °F /  12 °C 29.99in /  1015.5hPa NE 4.9mph /  7.9km/h 9.0mph /  14.5km/h 45% 0.00in /  0mm 970.0 W/m2
11:49 76.6 °F /  24.8 °C 53.1 °F /  11.7 °C 29.99in /  1015.5hPa East 4.0mph /  6.4km/h 9.0mph /  14.5km/h 44% 0.00in /  0mm 977.0 W/m2
11:55 76.8 °F /  24.9 °C 53.2 °F /  11.8 °C 29.99in /  1015.5hPa East 4.0mph /  6.4km/h 10.0mph /  16.1km/h 44% 0.00in /  0mm 963.0 W/m2
12:02 77.0 °F /  25 °C 52.9 °F /  11.6 °C 29.99in /  1015.5hPa NNE 8.1mph /  13km/h 14.0mph /  22.5km/h 43% 0.00in /  0mm 1058.0 W/m2
12:08 77.4 °F /  25.2 °C 53.1 °F /  11.7 °C 29.99in /  1015.5hPa NE 2.9mph /  4.7km/h 7.0mph /  11.3km/h 43% 0.00in /  0mm 1025.0 W/m2
12:14 77.4 °F /  25.2 °C 51.8 °F /  11 °C 29.98in /  1015.1hPa South 4.9mph /  7.9km/h 9.0mph /  14.5km/h 41% 0.00in /  0mm 991.0 W/m2
12:20 77.9 °F /  25.5 °C 52.3 °F /  11.3 °C 29.98in /  1015.1hPa NNE 6.0mph /  9.7km/h 11.0mph /  17.7km/h 41% 0.00in /  0mm 1127.0 W/m2
12:26 78.1 °F /  25.6 °C 51.1 °F /  10.6 °C 29.98in /  1015.1hPa ESE 2.0mph /  3.2km/h 8.0mph /  12.9km/h 39% 0.00in /  0mm 232.0 W/m2
12:32 77.7 °F /  25.4 °C 51.4 °F /  10.8 °C 29.98in /  1015.1hPa NNE 4.9mph /  7.9km/h 11.0mph /  17.7km/h 40% 0.00in /  0mm 1021.0 W/m2
12:38 78.3 °F /  25.7 °C 51.3 °F /  10.7 °C 29.97in /  1014.8hPa Calm   12.0mph /  19.3km/h 39% 0.00in /  0mm 1085.0 W/m2
12:45 78.4 °F /  25.8 °C 50.0 °F /  10 °C 29.97in /  1014.8hPa NE 4.9mph /  7.9km/h 15.0mph /  24.1km/h 37% 0.00in /  0mm 1088.0 W/m2
12:51 78.6 °F /  25.9 °C 51.6 °F /  10.9 °C 29.97in /  1014.8hPa ESE 4.9mph /  7.9km/h 13.0mph /  20.9km/h 39% 0.00in /  0mm 1114.0 W/m2
12:57 79.0 °F /  26.1 °C 52.0 °F /  11.1 °C 29.97in /  1014.8hPa NE 4.0mph /  6.4km/h 5.0mph /  8km/h 39% 0.00in /  0mm 1034.0 W/m2
13:03 79.0 °F /  26.1 °C 50.5 °F /  10.3 °C 29.97in /  1014.8hPa NNE 4.0mph /  6.4km/h 11.0mph /  17.7km/h 37% 0.00in /  0mm 1150.0 W/m2
13:09 79.0 °F /  26.1 °C 51.3 °F /  10.7 °C 29.96in /  1014.4hPa NNE 2.0mph /  3.2km/h 8.0mph /  12.9km/h 38% 0.00in /  0mm 1095.0 W/m2
13:15 78.6 °F /  25.9 °C 50.9 °F /  10.5 °C 29.96in /  1014.4hPa East 2.9mph /  4.7km/h 8.0mph /  12.9km/h 38% 0.00in /  0mm 1039.0 W/m2
13:21 79.3 °F /  26.3 °C 50.7 °F /  10.4 °C 29.96in /  1014.4hPa ENE 6.9mph /  11.1km/h 13.0mph /  20.9km/h 37% 0.00in /  0mm 1136.0 W/m2
13:27 79.7 °F /  26.5 °C 50.4 °F /  10.2 °C 29.96in /  1014.4hPa NE 4.0mph /  6.4km/h 10.0mph /  16.1km/h 36% 0.00in /  0mm 1078.0 W/m2
13:33 79.7 °F /  26.5 °C 50.4 °F /  10.2 °C 29.96in /  1014.4hPa ENE 2.0mph /  3.2km/h 8.0mph /  12.9km/h 36% 0.00in /  0mm 1069.0 W/m2
13:40 80.2 °F /  26.8 °C 50.9 °F /  10.5 °C 29.96in /  1014.4hPa North 2.0mph /  3.2km/h 7.0mph /  11.3km/h 36% 0.00in /  0mm 251.0 W/m2
13:46 80.1 °F /  26.7 °C 50.7 °F /  10.4 °C 29.96in /  1014.4hPa NE 6.0mph /  9.7km/h 8.0mph /  12.9km/h 36% 0.00in /  0mm 1058.0 W/m2
13:52 79.9 °F /  26.6 °C 49.8 °F /  9.9 °C 29.95in /  1014.1hPa NE 4.9mph /  7.9km/h 15.0mph /  24.1km/h 35% 0.00in /  0mm 230.0 W/m2
13:58 79.7 °F /  26.5 °C 49.6 °F /  9.8 °C 29.95in /  1014.1hPa SSE 11.0mph /  17.7km/h 11.0mph /  17.7km/h 35% 0.00in /  0mm 1078.0 W/m2
14:04 79.5 °F /  26.4 °C 49.5 °F /  9.7 °C 29.95in /  1014.1hPa ESE 6.9mph /  11.1km/h 12.0mph /  19.3km/h 35% 0.00in /  0mm 355.0 W/m2
14:10 79.0 °F /  26.1 °C 48.9 °F /  9.4 °C 29.94in /  1013.8hPa NNE 2.9mph /  4.7km/h 12.0mph /  19.3km/h 35% 0.00in /  0mm 214.0 W/m2
14:16 79.3 °F /  26.3 °C 49.3 °F /  9.6 °C 29.93in /  1013.4hPa Calm   8.0mph /  12.9km/h 35% 0.00in /  0mm 171.0 W/m2
14:23 79.3 °F /  26.3 °C 48.6 °F /  9.2 °C 29.93in /  1013.4hPa ESE 2.9mph /  4.7km/h 9.0mph /  14.5km/h 34% 0.00in /  0mm 1034.0 W/m2
14:29 79.2 °F /  26.2 °C 48.4 °F /  9.1 °C 29.94in /  1013.8hPa East 4.9mph /  7.9km/h 9.0mph /  14.5km/h 34% 0.00in /  0mm 172.0 W/m2
14:35 78.3 °F /  25.7 °C 47.7 °F /  8.7 °C 29.93in /  1013.4hPa NE 4.0mph /  6.4km/h 8.0mph /  12.9km/h 34% 0.00in /  0mm 1037.0 W/m2
14:41 78.8 °F /  26 °C 49.6 °F /  9.8 °C 29.93in /  1013.4hPa East 4.9mph /  7.9km/h 11.0mph /  17.7km/h 36% 0.00in /  0mm 264.0 W/m2
14:47 79.0 °F /  26.1 °C 48.9 °F /  9.4 °C 29.93in /  1013.4hPa ENE 8.9mph /  14.3km/h 9.0mph /  14.5km/h 35% 0.00in /  0mm 258.0 W/m2
14:49 78.8 °F /  26 °C 48.9 °F /  9.4 °C 29.93in /  1013.4hPa SE 8.1mph /  13km/h 12.0mph /  19.3km/h 35% 0.00in /  0mm 258.0 W/m2
14:55 78.4 °F /  25.8 °C 47.7 °F /  8.7 °C 29.93in /  1013.4hPa NE 4.0mph /  6.4km/h 8.0mph /  12.9km/h 34% 0.00in /  0mm 239.0 W/m2
15:01 78.4 °F /  25.8 °C 48.6 °F /  9.2 °C 29.93in /  1013.4hPa ENE 4.9mph /  7.9km/h 7.0mph /  11.3km/h 35% 0.00in /  0mm 230.0 W/m2
15:07 78.3 °F /  25.7 °C 49.1 °F /  9.5 °C 29.93in /  1013.4hPa ESE 6.0mph /  9.7km/h 8.0mph /  12.9km/h 36% 0.00in /  0mm 255.0 W/m2
15:14 77.7 °F /  25.4 °C 47.8 °F /  8.8 °C 29.93in /  1013.4hPa East 4.9mph /  7.9km/h 5.0mph /  8km/h 35% 0.00in /  0mm 151.0 W/m2
15:26 78.3 °F /  25.7 °C 48.4 °F /  9.1 °C 29.93in /  1013.4hPa East 8.9mph /  14.3km/h 9.0mph /  14.5km/h 35% 0.00in /  0mm 821.0 W/m2
15:38 79.3 °F /  26.3 °C 47.7 °F /  8.7 °C 29.92in /  1013.1hPa SSE 6.0mph /  9.7km/h 11.0mph /  17.7km/h 33% 0.00in /  0mm 863.0 W/m2
15:44 80.1 °F /  26.7 °C 48.4 °F /  9.1 °C 29.92in /  1013.1hPa SSE 6.0mph /  9.7km/h 8.0mph /  12.9km/h 33% 0.00in /  0mm 174.0 W/m2
15:50 79.3 °F /  26.3 °C 47.7 °F /  8.7 °C 29.92in /  1013.1hPa East 6.0mph /  9.7km/h 7.0mph /  11.3km/h 33% 0.00in /  0mm 156.0 W/m2
15:56 79.2 °F /  26.2 °C 48.4 °F /  9.1 °C 29.92in /  1013.1hPa NE 6.9mph /  11.1km/h 10.0mph /  16.1km/h 34% 0.00in /  0mm 735.0 W/m2
16:03 79.5 °F /  26.4 °C 47.8 °F /  8.8 °C 29.92in /  1013.1hPa East 6.9mph /  11.1km/h 9.0mph /  14.5km/h 33% 0.00in /  0mm 522.0 W/m2
16:09 79.9 °F /  26.6 °C 47.3 °F /  8.5 °C 29.92in /  1013.1hPa NNE 4.0mph /  6.4km/h 5.0mph /  8km/h 32% 0.00in /  0mm 671.0 W/m2
16:15 80.2 °F /  26.8 °C 48.6 °F /  9.2 °C 29.92in /  1013.1hPa East 0.9mph /  1.4km/h 9.0mph /  14.5km/h 33% 0.00in /  0mm 749.0 W/m2
16:21 81.0 °F /  27.2 °C 48.4 °F /  9.1 °C 29.92in /  1013.1hPa SE 0.9mph /  1.4km/h 11.0mph /  17.7km/h 32% 0.00in /  0mm 185.0 W/m2
16:27 80.1 °F /  26.7 °C 47.5 °F /  8.6 °C 29.92in /  1013.1hPa NE 0.9mph /  1.4km/h 8.0mph /  12.9km/h 32% 0.00in /  0mm 84.0 W/m2
16:33 79.2 °F /  26.2 °C 47.7 °F /  8.7 °C 29.92in /  1013.1hPa ENE 8.1mph /  13km/h 8.1mph /  13km/h 33% 0.00in /  0mm 564.0 W/m2
16:37 79.3 °F /  26.3 °C 46.0 °F /  7.8 °C 29.92in /  1013.1hPa East 2.9mph /  4.7km/h 7.0mph /  11.3km/h 31% 0.00in /  0mm 557.0 W/m2
16:44 79.9 °F /  26.6 °C 47.3 °F /  8.5 °C 29.92in /  1013.1hPa ENE 15.0mph /  24.1km/h 15.0mph /  24.1km/h 32% 0.00in /  0mm 536.0 W/m2
16:50 80.2 °F /  26.8 °C 47.7 °F /  8.7 °C 29.93in /  1013.4hPa East 4.9mph /  7.9km/h 5.0mph /  8km/h 32% 0.00in /  0mm 526.0 W/m2
16:56 81.0 °F /  27.2 °C 47.5 °F /  8.6 °C 29.93in /  1013.4hPa East 2.9mph /  4.7km/h 7.0mph /  11.3km/h 31% 0.00in /  0mm 513.0 W/m2
17:02 80.8 °F /  27.1 °C 47.3 °F /  8.5 °C 29.93in /  1013.4hPa ENE 4.0mph /  6.4km/h 6.0mph /  9.7km/h 31% 0.00in /  0mm 141.0 W/m2
17:08 80.4 °F /  26.9 °C 47.8 °F /  8.8 °C 29.93in /  1013.4hPa NNE 2.9mph /  4.7km/h 5.0mph /  8km/h 32% 0.00in /  0mm 448.0 W/m2
17:14 80.4 °F /  26.9 °C 47.8 °F /  8.8 °C 29.93in /  1013.4hPa SE 2.0mph /  3.2km/h 9.0mph /  14.5km/h 32% 0.00in /  0mm 461.0 W/m2
17:20 80.8 °F /  27.1 °C 48.2 °F /  9 °C 29.93in /  1013.4hPa East 4.9mph /  7.9km/h 11.0mph /  17.7km/h 32% 0.00in /  0mm 404.0 W/m2
17:26 80.4 °F /  26.9 °C 47.8 °F /  8.8 °C 29.93in /  1013.4hPa NE 6.0mph /  9.7km/h 7.0mph /  11.3km/h 32% 0.00in /  0mm 311.0 W/m2
17:32 80.2 °F /  26.8 °C 46.9 °F /  8.3 °C 29.93in /  1013.4hPa ENE 2.9mph /  4.7km/h 7.0mph /  11.3km/h 31% 0.00in /  0mm 290.0 W/m2
17:39 79.7 °F /  26.5 °C 47.3 °F /  8.5 °C 29.93in /  1013.4hPa NE 0.9mph /  1.4km/h 6.0mph /  9.7km/h 32% 0.00in /  0mm 288.0 W/m2
17:45 79.2 °F /  26.2 °C 47.7 °F /  8.7 °C 29.93in /  1013.4hPa ESE 2.9mph /  4.7km/h 5.0mph /  8km/h 33% 0.00in /  0mm 127.0 W/m2
17:51 79.3 °F /  26.3 °C 47.7 °F /  8.7 °C 29.93in /  1013.4hPa SE 2.0mph /  3.2km/h 9.0mph /  14.5km/h 33% 0.00in /  0mm 306.0 W/m2
17:57 79.3 °F /  26.3 °C 46.9 °F /  8.3 °C 29.93in /  1013.4hPa SE 2.0mph /  3.2km/h 9.0mph /  14.5km/h 32% 0.00in /  0mm 98.0 W/m2
18:03 79.2 °F /  26.2 °C 47.7 °F /  8.7 °C 29.93in /  1013.4hPa ESE 2.0mph /  3.2km/h 6.0mph /  9.7km/h 33% 0.00in /  0mm 46.0 W/m2
18:09 78.3 °F /  25.7 °C 47.7 °F /  8.7 °C 29.94in /  1013.8hPa NE 0.9mph /  1.4km/h 5.0mph /  8km/h 34% 0.00in /  0mm 32.0 W/m2
18:15 77.5 °F /  25.3 °C 47.7 °F /  8.7 °C 29.94in /  1013.8hPa Calm   4.0mph /  6.4km/h 35% 0.00in /  0mm 35.0 W/m2
18:22 76.8 °F /  24.9 °C 47.1 °F /  8.4 °C 29.94in /  1013.8hPa East 4.0mph /  6.4km/h 5.0mph /  8km/h 35% 0.00in /  0mm 32.0 W/m2
18:28 76.1 °F /  24.5 °C 46.4 °F /  8 °C 29.94in /  1013.8hPa ESE 2.9mph /  4.7km/h 5.0mph /  8km/h 35% 0.00in /  0mm 30.0 W/m2
18:34 75.6 °F /  24.2 °C 46.8 °F /  8.2 °C 29.94in /  1013.8hPa ESE 0.9mph /  1.4km/h 5.0mph /  8km/h 36% 0.00in /  0mm 25.0 W/m2
18:40 75.0 °F /  23.9 °C 46.9 °F /  8.3 °C 29.94in /  1013.8hPa East 0.9mph /  1.4km/h 2.0mph /  3.2km/h 37% 0.00in /  0mm 19.0 W/m2
18:46 74.7 °F /  23.7 °C 46.6 °F /  8.1 °C 29.94in /  1013.8hPa Calm   3.0mph /  4.8km/h 37% 0.00in /  0mm 14.0 W/m2
18:52 74.3 °F /  23.5 °C 47.1 °F /  8.4 °C 29.94in /  1013.8hPa ENE 0.9mph /  1.4km/h 3.0mph /  4.8km/h 38% 0.00in /  0mm 11.0 W/m2
18:58 73.9 °F /  23.3 °C 48.0 °F /  8.9 °C 29.95in /  1014.1hPa Calm   1.0mph /  1.6km/h 40% 0.00in /  0mm 5.0 W/m2
19:04 73.6 °F /  23.1 °C 48.4 °F /  9.1 °C 29.95in /  1014.1hPa East 0.9mph /  1.4km/h 2.0mph /  3.2km/h 41% 0.00in /  0mm 0.0 W/m2
19:11 73.2 °F /  22.9 °C 48.0 °F /  8.9 °C 29.95in /  1014.1hPa Calm   2.0mph /  3.2km/h 41% 0.00in /  0mm 0.0 W/m2
19:17 72.9 °F /  22.7 °C 48.4 °F /  9.1 °C 29.95in /  1014.1hPa Calm   2.0mph /  3.2km/h 42% 0.00in /  0mm 0.0 W/m2
19:23 72.3 °F /  22.4 °C 48.6 °F /  9.2 °C 29.95in /  1014.1hPa ESE 0.9mph /  1.4km/h 1.0mph /  1.6km/h 43% 0.00in /  0mm 0.0 W/m2
19:29 72.0 °F /  22.2 °C 48.2 °F /  9 °C 29.95in /  1014.1hPa Calm   1.0mph /  1.6km/h 43% 0.00in /  0mm 0.0 W/m2
19:35 71.4 °F /  21.9 °C 47.8 °F /  8.8 °C 29.95in /  1014.1hPa Calm   1.0mph /  1.6km/h 43% 0.00in /  0mm 0.0 W/m2
19:41 71.1 °F /  21.7 °C 48.0 °F /  8.9 °C 29.96in /  1014.4hPa Calm   1.0mph /  1.6km/h 44% 0.00in /  0mm 0.0 W/m2
19:47 70.5 °F /  21.4 °C 47.5 °F /  8.6 °C 29.96in /  1014.4hPa Calm     44% 0.00in /  0mm 0.0 W/m2
19:53 70.2 °F /  21.2 °C 47.8 °F /  8.8 °C 29.96in /  1014.4hPa Calm   1.0mph /  1.6km/h 45% 0.00in /  0mm 0.0 W/m2
20:00 69.6 °F /  20.9 °C 47.8 °F /  8.8 °C 29.96in /  1014.4hPa Calm     46% 0.00in /  0mm 0.0 W/m2
20:06 69.3 °F /  20.7 °C 48.2 °F /  9 °C 29.97in /  1014.8hPa Calm   2.0mph /  3.2km/h 47% 0.00in /  0mm 0.0 W/m2
20:12 68.7 °F /  20.4 °C 48.2 °F /  9 °C 29.97in /  1014.8hPa Calm   1.0mph /  1.6km/h 48% 0.00in /  0mm 0.0 W/m2
20:18 68.4 °F /  20.2 °C 48.4 °F /  9.1 °C 29.97in /  1014.8hPa Calm   1.0mph /  1.6km/h 49% 0.00in /  0mm 0.0 W/m2
20:24 68.0 °F /  20 °C 48.7 °F /  9.3 °C 29.98in /  1015.1hPa ENE 2.0mph /  3.2km/h 2.0mph /  3.2km/h 50% 0.00in /  0mm 0.0 W/m2
20:26 67.8 °F /  19.9 °C 48.6 °F /  9.2 °C 29.98in /  1015.1hPa Calm   2.0mph /  3.2km/h 50% 0.00in /  0mm 0.0 W/m2
20:32 67.5 °F /  19.7 °C 49.3 °F /  9.6 °C 29.98in /  1015.1hPa Calm   1.0mph /  1.6km/h 52% 0.00in /  0mm 0.0 W/m2
20:38 67.3 °F /  19.6 °C 49.1 °F /  9.5 °C 29.98in /  1015.1hPa NE 0.9mph /  1.4km/h 2.0mph /  3.2km/h 52% 0.00in /  0mm 0.0 W/m2
20:44 66.9 °F /  19.4 °C 49.3 °F /  9.6 °C 29.98in /  1015.1hPa Calm   4.0mph /  6.4km/h 53% 0.00in /  0mm 0.0 W/m2
20:51 66.6 °F /  19.2 °C 48.9 °F /  9.4 °C 29.99in /  1015.5hPa ENE 0.9mph /  1.4km/h 3.0mph /  4.8km/h 53% 0.00in /  0mm 0.0 W/m2
20:57 66.6 °F /  19.2 °C 48.9 °F /  9.4 °C 29.99in /  1015.5hPa Calm   2.0mph /  3.2km/h 53% 0.00in /  0mm 0.0 W/m2
21:03 66.4 °F /  19.1 °C 49.3 °F /  9.6 °C 29.99in /  1015.5hPa ENE 0.9mph /  1.4km/h 2.0mph /  3.2km/h 54% 0.00in /  0mm 0.0 W/m2
21:09 66.0 °F /  18.9 °C 48.9 °F /  9.4 °C 29.99in /  1015.5hPa Calm   1.0mph /  1.6km/h 54% 0.00in /  0mm 0.0 W/m2
21:15 65.8 °F /  18.8 °C 49.3 °F /  9.6 °C 29.99in /  1015.5hPa Calm   1.0mph /  1.6km/h 55% 0.00in /  0mm 0.0 W/m2
21:21 65.8 °F /  18.8 °C 49.3 °F /  9.6 °C 30.00in /  1015.8hPa ENE 2.0mph /  3.2km/h 4.0mph /  6.4km/h 55% 0.00in /  0mm 0.0 W/m2
21:27 65.7 °F /  18.7 °C 49.5 °F /  9.7 °C 30.00in /  1015.8hPa East 0.9mph /  1.4km/h 2.0mph /  3.2km/h 56% 0.00in /  0mm 0.0 W/m2
21:33 65.5 °F /  18.6 °C 49.3 °F /  9.6 °C 30.00in /  1015.8hPa Calm   2.0mph /  3.2km/h 56% 0.00in /  0mm 0.0 W/m2
21:39 65.5 °F /  18.6 °C 49.8 °F /  9.9 °C 30.00in /  1015.8hPa East 2.0mph /  3.2km/h 2.0mph /  3.2km/h 57% 0.00in /  0mm 0.0 W/m2
21:46 65.1 °F /  18.4 °C 50.0 °F /  10 °C 30.01in /  1016.1hPa ESE 0.9mph /  1.4km/h 3.0mph /  4.8km/h 58% 0.00in /  0mm 0.0 W/m2
21:52 64.9 °F /  18.3 °C 49.8 °F /  9.9 °C 30.01in /  1016.1hPa ESE 0.9mph /  1.4km/h 3.0mph /  4.8km/h 58% 0.00in /  0mm 0.0 W/m2
21:58 64.8 °F /  18.2 °C 50.2 °F /  10.1 °C 30.01in /  1016.1hPa Calm   3.0mph /  4.8km/h 59% 0.00in /  0mm 0.0 W/m2
22:04 64.6 °F /  18.1 °C 50.0 °F /  10 °C 30.01in /  1016.1hPa ESE 0.9mph /  1.4km/h 2.0mph /  3.2km/h 59% 0.00in /  0mm 0.0 W/m2
22:10 64.6 °F /  18.1 °C 50.4 °F /  10.2 °C 30.00in /  1015.8hPa ESE 0.9mph /  1.4km/h 3.0mph /  4.8km/h 60% 0.00in /  0mm 0.0 W/m2
22:16 64.4 °F /  18 °C 50.2 °F /  10.1 °C 30.01in /  1016.1hPa East 2.0mph /  3.2km/h 2.0mph /  3.2km/h 60% 0.00in /  0mm 0.0 W/m2
22:22 64.2 °F /  17.9 °C 50.5 °F /  10.3 °C 30.01in /  1016.1hPa Calm   2.0mph /  3.2km/h 61% 0.00in /  0mm 0.0 W/m2
22:28 64.0 °F /  17.8 °C 50.4 °F /  10.2 °C 30.01in /  1016.1hPa Calm   3.0mph /  4.8km/h 61% 0.00in /  0mm 0.0 W/m2
22:35 64.0 °F /  17.8 °C 50.7 °F /  10.4 °C 30.00in /  1015.8hPa ESE 2.0mph /  3.2km/h 5.0mph /  8km/h 62% 0.00in /  0mm 0.0 W/m2
22:37 63.9 °F /  17.7 °C 51.1 °F /  10.6 °C 30.01in /  1016.1hPa Calm   3.0mph /  4.8km/h 63% 0.00in /  0mm 0.0 W/m2
22:43 63.9 °F /  17.7 °C 51.1 °F /  10.6 °C 30.00in /  1015.8hPa Calm   4.0mph /  6.4km/h 63% 0.00in /  0mm 0.0 W/m2
22:49 63.9 °F /  17.7 °C 51.4 °F /  10.8 °C 30.01in /  1016.1hPa Calm   4.0mph /  6.4km/h 64% 0.00in /  0mm 0.0 W/m2
22:55 63.7 °F /  17.6 °C 51.3 °F /  10.7 °C 30.01in /  1016.1hPa ESE 0.9mph /  1.4km/h 2.0mph /  3.2km/h 64% 0.00in /  0mm 0.0 W/m2
23:01 63.7 °F /  17.6 °C 51.3 °F /  10.7 °C 30.01in /  1016.1hPa East 2.0mph /  3.2km/h 5.0mph /  8km/h 64% 0.00in /  0mm 0.0 W/m2
23:07 63.9 °F /  17.7 °C 51.4 °F /  10.8 °C 30.00in /  1015.8hPa East 2.9mph /  4.7km/h 3.0mph /  4.8km/h 64% 0.00in /  0mm 0.0 W/m2
23:15 64.0 °F /  17.8 °C 51.6 °F /  10.9 °C 30.00in /  1015.8hPa Calm   5.0mph /  8km/h 64% 0.00in /  0mm 0.0 W/m2
23:21 64.0 °F /  17.8 °C 51.6 °F /  10.9 °C 30.00in /  1015.8hPa ESE 2.0mph /  3.2km/h 5.0mph /  8km/h 64% 0.00in /  0mm 0.0 W/m2
23:27 64.2 °F /  17.9 °C 51.8 °F /  11 °C 30.00in /  1015.8hPa Calm   3.0mph /  4.8km/h 64% 0.00in /  0mm 0.0 W/m2
23:33 64.2 °F /  17.9 °C 51.8 °F /  11 °C 30.00in /  1015.8hPa Calm   6.0mph /  9.7km/h 64% 0.00in /  0mm 0.0 W/m2
23:39 64.2 °F /  17.9 °C 51.8 °F /  11 °C 30.00in /  1015.8hPa Calm   7.0mph /  11.3km/h 64% 0.00in /  0mm 0.0 W/m2
23:45 64.2 °F /  17.9 °C 51.8 °F /  11 °C 30.00in /  1015.8hPa ESE 2.9mph /  4.7km/h 5.0mph /  8km/h 64% 0.00in /  0mm 0.0 W/m2
23:51 64.4 °F /  18 °C 52.0 °F /  11.1 °C 29.99in /  1015.5hPa North 0.9mph /  1.4km/h 4.0mph /  6.4km/h 64% 0.00in /  0mm 0.0 W/m2
23:57 64.6 °F /  18.1 °C 52.2 °F /  11.2 °C 29.99in /  1015.5hPa East 4.9mph /  7.9km/h 7.0mph /  11.3km/h 64% 0.00in /  0mm 0.0 W/m2
Olympia, Windhoek, Namibia
Compliments of Weather Underground - 3 mb